sensor_id;sensor_type;location;lat;lon;timestamp;temperature;humidity
41928;DHT22;27616;51.420;6.788;2024-03-29T00:00:41;9.50;99.90
41928;DHT22;27616;51.420;6.788;2024-03-29T00:03:08;9.50;99.90
41928;DHT22;27616;51.420;6.788;2024-03-29T00:05:34;9.50;99.90
41928;DHT22;27616;51.420;6.788;2024-03-29T00:08:00;9.50;99.90
41928;DHT22;27616;51.420;6.788;2024-03-29T00:10:26;9.50;99.90
41928;DHT22;27616;51.420;6.788;2024-03-29T00:12:52;9.50;99.90
41928;DHT22;27616;51.420;6.788;2024-03-29T00:15:17;9.40;99.90
41928;DHT22;27616;51.420;6.788;2024-03-29T00:17:43;9.40;99.90
41928;DHT22;27616;51.420;6.788;2024-03-29T00:20:09;9.50;99.90
41928;DHT22;27616;51.420;6.788;2024-03-29T00:22:35;9.50;99.90
41928;DHT22;27616;51.420;6.788;2024-03-29T00:25:00;9.50;99.90
41928;DHT22;27616;51.420;6.788;2024-03-29T00:27:26;9.50;99.90
41928;DHT22;27616;51.420;6.788;2024-03-29T00:29:54;9.50;99.90
41928;DHT22;27616;51.420;6.788;2024-03-29T00:32:20;9.50;99.90
41928;DHT22;27616;51.420;6.788;2024-03-29T00:34:45;9.60;99.90
41928;DHT22;27616;51.420;6.788;2024-03-29T00:37:11;9.50;99.90
41928;DHT22;27616;51.420;6.788;2024-03-29T00:39:37;9.50;99.90
41928;DHT22;27616;51.420;6.788;2024-03-29T00:42:03;9.50;99.90
41928;DHT22;27616;51.420;6.788;2024-03-29T00:44:32;9.50;99.90
41928;DHT22;27616;51.420;6.788;2024-03-29T00:46:58;9.50;99.90
41928;DHT22;27616;51.420;6.788;2024-03-29T00:49:23;9.40;99.90
41928;DHT22;27616;51.420;6.788;2024-03-29T00:51:49;9.40;99.90
41928;DHT22;27616;51.420;6.788;2024-03-29T00:54:14;9.40;99.90
41928;DHT22;27616;51.420;6.788;2024-03-29T00:56:40;9.40;99.90
41928;DHT22;27616;51.420;6.788;2024-03-29T00:59:05;9.40;99.90
41928;DHT22;27616;51.420;6.788;2024-03-29T01:01:31;9.40;99.90
41928;DHT22;27616;51.420;6.788;2024-03-29T01:03:58;9.40;99.90
41928;DHT22;27616;51.420;6.788;2024-03-29T01:06:23;9.40;99.90
41928;DHT22;27616;51.420;6.788;2024-03-29T01:08:49;9.40;99.90
41928;DHT22;27616;51.420;6.788;2024-03-29T01:11:15;9.40;99.90
41928;DHT22;27616;51.420;6.788;2024-03-29T01:13:40;9.40;99.90
41928;DHT22;27616;51.420;6.788;2024-03-29T01:16:06;9.40;99.90
41928;DHT22;27616;51.420;6.788;2024-03-29T01:18:32;9.30;99.90
41928;DHT22;27616;51.420;6.788;2024-03-29T01:20:59;9.40;99.90
41928;DHT22;27616;51.420;6.788;2024-03-29T01:23:24;9.40;99.90
41928;DHT22;27616;51.420;6.788;2024-03-29T01:25:50;9.40;99.90
41928;DHT22;27616;51.420;6.788;2024-03-29T01:28:15;9.50;99.90
41928;DHT22;27616;51.420;6.788;2024-03-29T01:30:41;9.50;99.90
41928;DHT22;27616;51.420;6.788;2024-03-29T01:33:06;9.50;99.90
41928;DHT22;27616;51.420;6.788;2024-03-29T01:35:32;9.60;99.90
41928;DHT22;27616;51.420;6.788;2024-03-29T01:37:58;9.60;99.90
41928;DHT22;27616;51.420;6.788;2024-03-29T01:40:23;9.60;99.90
41928;DHT22;27616;51.420;6.788;2024-03-29T01:42:53;9.60;99.90
41928;DHT22;27616;51.420;6.788;2024-03-29T01:45:18;9.60;99.90
41928;DHT22;27616;51.420;6.788;2024-03-29T01:47:45;9.60;99.90
41928;DHT22;27616;51.420;6.788;2024-03-29T01:50:11;9.60;99.90
41928;DHT22;27616;51.420;6.788;2024-03-29T01:52:37;9.70;99.90
41928;DHT22;27616;51.420;6.788;2024-03-29T01:55:03;9.70;99.90
41928;DHT22;27616;51.420;6.788;2024-03-29T01:57:29;9.70;99.90
41928;DHT22;27616;51.420;6.788;2024-03-29T01:59:56;9.70;99.90
41928;DHT22;27616;51.420;6.788;2024-03-29T02:02:22;9.70;99.90
41928;DHT22;27616;51.420;6.788;2024-03-29T02:04:49;9.70;99.90
41928;DHT22;27616;51.420;6.788;2024-03-29T02:07:14;9.70;99.90
41928;DHT22;27616;51.420;6.788;2024-03-29T02:09:40;9.70;99.90
41928;DHT22;27616;51.420;6.788;2024-03-29T02:12:06;9.80;99.90
41928;DHT22;27616;51.420;6.788;2024-03-29T02:14:32;9.80;99.90
41928;DHT22;27616;51.420;6.788;2024-03-29T02:16:58;9.80;99.90
41928;DHT22;27616;51.420;6.788;2024-03-29T02:19:24;9.80;99.90
41928;DHT22;27616;51.420;6.788;2024-03-29T02:21:51;9.80;99.90
41928;DHT22;27616;51.420;6.788;2024-03-29T02:24:19;9.80;99.90
41928;DHT22;27616;51.420;6.788;2024-03-29T02:26:44;9.80;99.90
41928;DHT22;27616;51.420;6.788;2024-03-29T02:29:11;9.80;99.90
41928;DHT22;27616;51.420;6.788;2024-03-29T02:31:36;9.80;99.90
41928;DHT22;27616;51.420;6.788;2024-03-29T02:34:02;9.90;99.90
41928;DHT22;27616;51.420;6.788;2024-03-29T02:36:28;9.90;99.90
41928;DHT22;27616;51.420;6.788;2024-03-29T02:38:54;9.90;99.90
41928;DHT22;27616;51.420;6.788;2024-03-29T02:41:19;9.90;99.90
41928;DHT22;27616;51.420;6.788;2024-03-29T02:43:45;9.90;99.90
41928;DHT22;27616;51.420;6.788;2024-03-29T02:46:10;10.00;99.90
41928;DHT22;27616;51.420;6.788;2024-03-29T02:48:36;9.90;99.90
41928;DHT22;27616;51.420;6.788;2024-03-29T02:51:02;9.90;99.90
41928;DHT22;27616;51.420;6.788;2024-03-29T02:53:27;10.00;99.90
41928;DHT22;27616;51.420;6.788;2024-03-29T02:55:53;10.10;99.90
41928;DHT22;27616;51.420;6.788;2024-03-29T02:58:18;10.20;99.90
41928;DHT22;27616;51.420;6.788;2024-03-29T03:00:44;10.20;99.90
41928;DHT22;27616;51.420;6.788;2024-03-29T03:03:09;10.20;99.90
41928;DHT22;27616;51.420;6.788;2024-03-29T03:05:35;10.20;99.90
41928;DHT22;27616;51.420;6.788;2024-03-29T03:08:01;10.20;99.90
41928;DHT22;27616;51.420;6.788;2024-03-29T03:10:47;10.10;99.90
41928;DHT22;27616;51.420;6.788;2024-03-29T03:13:22;10.10;99.90
41928;DHT22;27616;51.420;6.788;2024-03-29T03:15:48;10.00;99.90
41928;DHT22;27616;51.420;6.788;2024-03-29T03:18:13;10.00;99.90
41928;DHT22;27616;51.420;6.788;2024-03-29T03:20:39;10.00;99.90
41928;DHT22;27616;51.420;6.788;2024-03-29T03:23:05;10.00;99.90
41928;DHT22;27616;51.420;6.788;2024-03-29T03:25:30;10.00;99.90
41928;DHT22;27616;51.420;6.788;2024-03-29T03:27:56;10.10;99.90
41928;DHT22;27616;51.420;6.788;2024-03-29T03:30:22;10.10;99.90
41928;DHT22;27616;51.420;6.788;2024-03-29T03:32:48;10.00;99.90
41928;DHT22;27616;51.420;6.788;2024-03-29T03:35:13;9.90;99.90
41928;DHT22;27616;51.420;6.788;2024-03-29T03:37:39;9.90;99.90
41928;DHT22;27616;51.420;6.788;2024-03-29T03:40:05;9.90;99.90
41928;DHT22;27616;51.420;6.788;2024-03-29T03:42:32;9.90;99.90
41928;DHT22;27616;51.420;6.788;2024-03-29T03:44:58;10.00;99.90
41928;DHT22;27616;51.420;6.788;2024-03-29T03:47:23;10.00;99.90
41928;DHT22;27616;51.420;6.788;2024-03-29T03:49:49;10.00;99.90
41928;DHT22;27616;51.420;6.788;2024-03-29T03:52:15;10.00;99.90
41928;DHT22;27616;51.420;6.788;2024-03-29T03:54:40;10.00;99.90
41928;DHT22;27616;51.420;6.788;2024-03-29T03:57:06;10.00;99.90
41928;DHT22;27616;51.420;6.788;2024-03-29T03:59:32;10.00;99.90
41928;DHT22;27616;51.420;6.788;2024-03-29T04:01:57;10.00;99.90
41928;DHT22;27616;51.420;6.788;2024-03-29T04:04:23;10.00;99.90
41928;DHT22;27616;51.420;6.788;2024-03-29T04:06:49;9.90;99.90
41928;DHT22;27616;51.420;6.788;2024-03-29T04:09:15;9.90;99.90
41928;DHT22;27616;51.420;6.788;2024-03-29T04:11:43;9.80;99.90
41928;DHT22;27616;51.420;6.788;2024-03-29T04:14:09;9.80;99.90
41928;DHT22;27616;51.420;6.788;2024-03-29T04:16:35;9.80;99.90
41928;DHT22;27616;51.420;6.788;2024-03-29T04:19:01;9.80;99.90
41928;DHT22;27616;51.420;6.788;2024-03-29T04:21:26;9.70;99.90
41928;DHT22;27616;51.420;6.788;2024-03-29T04:23:52;9.70;99.90
41928;DHT22;27616;51.420;6.788;2024-03-29T04:26:18;9.70;99.90
41928;DHT22;27616;51.420;6.788;2024-03-29T04:28:44;9.60;99.90
41928;DHT22;27616;51.420;6.788;2024-03-29T04:31:09;9.50;99.90
41928;DHT22;27616;51.420;6.788;2024-03-29T04:33:36;9.40;99.90
41928;DHT22;27616;51.420;6.788;2024-03-29T04:36:03;9.30;99.90
41928;DHT22;27616;51.420;6.788;2024-03-29T04:38:30;9.30;99.90
41928;DHT22;27616;51.420;6.788;2024-03-29T04:40:57;9.20;99.90
41928;DHT22;27616;51.420;6.788;2024-03-29T04:43:24;9.10;99.90
41928;DHT22;27616;51.420;6.788;2024-03-29T04:45:50;9.00;99.90
41928;DHT22;27616;51.420;6.788;2024-03-29T04:48:16;8.90;99.90
41928;DHT22;27616;51.420;6.788;2024-03-29T04:50:42;8.80;99.90
41928;DHT22;27616;51.420;6.788;2024-03-29T04:53:08;8.70;99.90
41928;DHT22;27616;51.420;6.788;2024-03-29T04:55:34;8.60;99.90
41928;DHT22;27616;51.420;6.788;2024-03-29T04:58:01;8.60;99.90
41928;DHT22;27616;51.420;6.788;2024-03-29T05:00:26;8.60;99.90
41928;DHT22;27616;51.420;6.788;2024-03-29T05:02:52;8.50;99.90
41928;DHT22;27616;51.420;6.788;2024-03-29T05:05:18;8.40;99.90
41928;DHT22;27616;51.420;6.788;2024-03-29T05:07:43;8.30;99.90
41928;DHT22;27616;51.420;6.788;2024-03-29T05:10:09;8.20;99.90
41928;DHT22;27616;51.420;6.788;2024-03-29T05:12:35;8.10;99.90
41928;DHT22;27616;51.420;6.788;2024-03-29T05:15:01;8.10;99.90
41928;DHT22;27616;51.420;6.788;2024-03-29T05:17:27;8.00;99.90
41928;DHT22;27616;51.420;6.788;2024-03-29T05:19:56;7.90;99.90
41928;DHT22;27616;51.420;6.788;2024-03-29T05:22:22;7.80;99.90
41928;DHT22;27616;51.420;6.788;2024-03-29T05:24:47;7.60;99.90
41928;DHT22;27616;51.420;6.788;2024-03-29T05:27:13;7.50;99.90
41928;DHT22;27616;51.420;6.788;2024-03-29T05:29:39;7.50;99.90
41928;DHT22;27616;51.420;6.788;2024-03-29T05:32:06;7.40;99.90
41928;DHT22;27616;51.420;6.788;2024-03-29T05:34:31;7.40;99.90
41928;DHT22;27616;51.420;6.788;2024-03-29T05:36:57;7.30;99.90
41928;DHT22;27616;51.420;6.788;2024-03-29T05:39:23;7.30;99.90
41928;DHT22;27616;51.420;6.788;2024-03-29T05:41:48;7.30;99.90
41928;DHT22;27616;51.420;6.788;2024-03-29T05:44:14;7.30;99.90
41928;DHT22;27616;51.420;6.788;2024-03-29T05:46:39;7.30;99.90
41928;DHT22;27616;51.420;6.788;2024-03-29T05:49:06;7.30;99.90
41928;DHT22;27616;51.420;6.788;2024-03-29T05:51:32;7.30;99.90
41928;DHT22;27616;51.420;6.788;2024-03-29T05:53:59;7.30;99.90
41928;DHT22;27616;51.420;6.788;2024-03-29T05:56:25;7.20;99.90
41928;DHT22;27616;51.420;6.788;2024-03-29T05:58:50;7.20;99.90
41928;DHT22;27616;51.420;6.788;2024-03-29T06:01:16;7.20;99.90
41928;DHT22;27616;51.420;6.788;2024-03-29T06:03:42;7.20;99.90
41928;DHT22;27616;51.420;6.788;2024-03-29T06:06:08;7.20;99.90
41928;DHT22;27616;51.420;6.788;2024-03-29T06:08:37;7.30;99.90
41928;DHT22;27616;51.420;6.788;2024-03-29T06:11:03;7.30;99.90
41928;DHT22;27616;51.420;6.788;2024-03-29T06:13:28;7.30;99.90
41928;DHT22;27616;51.420;6.788;2024-03-29T06:16:13;7.30;99.90
41928;DHT22;27616;51.420;6.788;2024-03-29T06:18:57;7.30;99.90
41928;DHT22;27616;51.420;6.788;2024-03-29T06:21:23;7.40;99.90
41928;DHT22;27616;51.420;6.788;2024-03-29T06:23:48;7.40;99.90
41928;DHT22;27616;51.420;6.788;2024-03-29T06:26:14;7.50;99.90
41928;DHT22;27616;51.420;6.788;2024-03-29T06:28:40;7.50;99.90
41928;DHT22;27616;51.420;6.788;2024-03-29T06:31:05;7.60;99.90
41928;DHT22;27616;51.420;6.788;2024-03-29T06:33:31;7.60;99.90
41928;DHT22;27616;51.420;6.788;2024-03-29T06:35:56;7.70;99.90
41928;DHT22;27616;51.420;6.788;2024-03-29T06:38:22;7.80;99.90
41928;DHT22;27616;51.420;6.788;2024-03-29T06:40:48;8.00;99.90
41928;DHT22;27616;51.420;6.788;2024-03-29T06:43:13;8.00;99.90
41928;DHT22;27616;51.420;6.788;2024-03-29T06:45:40;8.00;99.90
41928;DHT22;27616;51.420;6.788;2024-03-29T06:48:08;8.10;99.90
41928;DHT22;27616;51.420;6.788;2024-03-29T06:50:34;8.10;99.90
41928;DHT22;27616;51.420;6.788;2024-03-29T06:53:00;8.10;99.90
41928;DHT22;27616;51.420;6.788;2024-03-29T06:55:26;8.10;99.90
41928;DHT22;27616;51.420;6.788;2024-03-29T06:57:51;8.20;99.90
41928;DHT22;27616;51.420;6.788;2024-03-29T07:00:17;8.10;99.90
41928;DHT22;27616;51.420;6.788;2024-03-29T07:02:43;8.20;99.90
41928;DHT22;27616;51.420;6.788;2024-03-29T07:05:09;8.20;99.90
41928;DHT22;27616;51.420;6.788;2024-03-29T07:07:37;8.30;99.90
41928;DHT22;27616;51.420;6.788;2024-03-29T07:10:03;8.40;99.90
41928;DHT22;27616;51.420;6.788;2024-03-29T07:12:29;8.50;99.90
41928;DHT22;27616;51.420;6.788;2024-03-29T07:14:54;8.40;99.90
41928;DHT22;27616;51.420;6.788;2024-03-29T07:17:20;8.50;99.90
41928;DHT22;27616;51.420;6.788;2024-03-29T07:19:45;8.50;99.90
41928;DHT22;27616;51.420;6.788;2024-03-29T07:22:11;8.50;99.90
41928;DHT22;27616;51.420;6.788;2024-03-29T07:24:36;8.50;99.90
41928;DHT22;27616;51.420;6.788;2024-03-29T07:27:02;8.50;99.90
41928;DHT22;27616;51.420;6.788;2024-03-29T07:29:28;8.60;99.90
41928;DHT22;27616;51.420;6.788;2024-03-29T07:31:53;8.60;99.90
41928;DHT22;27616;51.420;6.788;2024-03-29T07:34:19;8.80;99.90
41928;DHT22;27616;51.420;6.788;2024-03-29T07:36:46;9.00;99.90
41928;DHT22;27616;51.420;6.788;2024-03-29T07:39:11;9.00;99.90
41928;DHT22;27616;51.420;6.788;2024-03-29T07:41:37;9.00;99.90
41928;DHT22;27616;51.420;6.788;2024-03-29T07:44:03;9.10;99.90
41928;DHT22;27616;51.420;6.788;2024-03-29T07:46:33;9.20;99.90
41928;DHT22;27616;51.420;6.788;2024-03-29T07:49:00;9.20;99.90
41928;DHT22;27616;51.420;6.788;2024-03-29T07:51:25;9.30;99.90
41928;DHT22;27616;51.420;6.788;2024-03-29T07:53:51;9.30;99.90
41928;DHT22;27616;51.420;6.788;2024-03-29T07:56:16;9.20;99.90
41928;DHT22;27616;51.420;6.788;2024-03-29T07:58:43;9.30;99.90
41928;DHT22;27616;51.420;6.788;2024-03-29T08:01:08;9.30;99.90
41928;DHT22;27616;51.420;6.788;2024-03-29T08:03:34;9.30;99.90
41928;DHT22;27616;51.420;6.788;2024-03-29T08:06:03;9.40;99.90
41928;DHT22;27616;51.420;6.788;2024-03-29T08:08:32;9.40;99.90
41928;DHT22;27616;51.420;6.788;2024-03-29T08:10:59;9.40;99.90
41928;DHT22;27616;51.420;6.788;2024-03-29T08:13:26;9.40;99.90
41928;DHT22;27616;51.420;6.788;2024-03-29T08:16:01;9.40;99.90
41928;DHT22;27616;51.420;6.788;2024-03-29T08:18:28;9.50;99.90
41928;DHT22;27616;51.420;6.788;2024-03-29T08:20:54;9.60;99.90
41928;DHT22;27616;51.420;6.788;2024-03-29T08:23:24;9.60;99.90
41928;DHT22;27616;51.420;6.788;2024-03-29T08:25:49;9.70;99.90
41928;DHT22;27616;51.420;6.788;2024-03-29T08:28:20;9.60;99.90
41928;DHT22;27616;51.420;6.788;2024-03-29T08:30:45;9.60;99.90
41928;DHT22;27616;51.420;6.788;2024-03-29T08:33:11;9.60;99.90
41928;DHT22;27616;51.420;6.788;2024-03-29T08:35:37;9.60;99.90
41928;DHT22;27616;51.420;6.788;2024-03-29T08:38:04;9.60;99.90
41928;DHT22;27616;51.420;6.788;2024-03-29T08:40:30;9.50;99.90
41928;DHT22;27616;51.420;6.788;2024-03-29T08:42:57;9.40;99.90
41928;DHT22;27616;51.420;6.788;2024-03-29T08:45:23;9.40;99.90
41928;DHT22;27616;51.420;6.788;2024-03-29T08:47:49;9.30;99.90
41928;DHT22;27616;51.420;6.788;2024-03-29T08:50:15;9.30;99.90
41928;DHT22;27616;51.420;6.788;2024-03-29T08:52:40;9.20;99.90
41928;DHT22;27616;51.420;6.788;2024-03-29T08:55:07;9.30;99.90
41928;DHT22;27616;51.420;6.788;2024-03-29T08:57:32;9.30;99.90
41928;DHT22;27616;51.420;6.788;2024-03-29T08:59:58;9.30;99.90
41928;DHT22;27616;51.420;6.788;2024-03-29T09:02:24;9.40;99.90
41928;DHT22;27616;51.420;6.788;2024-03-29T09:04:49;9.40;99.90
41928;DHT22;27616;51.420;6.788;2024-03-29T09:07:15;9.50;99.90
41928;DHT22;27616;51.420;6.788;2024-03-29T09:09:41;9.60;99.90
41928;DHT22;27616;51.420;6.788;2024-03-29T09:12:10;9.60;99.90
41928;DHT22;27616;51.420;6.788;2024-03-29T09:14:36;9.60;99.90
41928;DHT22;27616;51.420;6.788;2024-03-29T09:17:01;9.60;99.90
41928;DHT22;27616;51.420;6.788;2024-03-29T09:19:28;9.60;99.90
41928;DHT22;27616;51.420;6.788;2024-03-29T09:21:55;9.80;99.90
41928;DHT22;27616;51.420;6.788;2024-03-29T09:24:21;9.80;99.90
41928;DHT22;27616;51.420;6.788;2024-03-29T09:26:51;9.70;99.90
41928;DHT22;27616;51.420;6.788;2024-03-29T09:29:16;9.80;99.90
41928;DHT22;27616;51.420;6.788;2024-03-29T09:31:43;9.90;99.90
41928;DHT22;27616;51.420;6.788;2024-03-29T09:34:09;9.90;99.90
41928;DHT22;27616;51.420;6.788;2024-03-29T09:36:34;10.00;99.90
41928;DHT22;27616;51.420;6.788;2024-03-29T09:39:00;10.00;99.90
41928;DHT22;27616;51.420;6.788;2024-03-29T09:41:26;10.10;99.90
41928;DHT22;27616;51.420;6.788;2024-03-29T09:43:54;10.20;99.90
41928;DHT22;27616;51.420;6.788;2024-03-29T09:46:23;10.20;99.90
41928;DHT22;27616;51.420;6.788;2024-03-29T09:48:49;10.20;99.90
41928;DHT22;27616;51.420;6.788;2024-03-29T09:51:16;10.20;99.90
41928;DHT22;27616;51.420;6.788;2024-03-29T09:53:42;10.40;99.90
41928;DHT22;27616;51.420;6.788;2024-03-29T09:56:09;10.60;99.90
41928;DHT22;27616;51.420;6.788;2024-03-29T09:58:36;10.80;99.90
41928;DHT22;27616;51.420;6.788;2024-03-29T10:01:04;11.00;99.90
41928;DHT22;27616;51.420;6.788;2024-03-29T10:03:31;11.30;99.90
41928;DHT22;27616;51.420;6.788;2024-03-29T10:05:57;11.30;99.90
41928;DHT22;27616;51.420;6.788;2024-03-29T10:08:30;11.30;99.90
41928;DHT22;27616;51.420;6.788;2024-03-29T10:10:57;11.40;99.90
41928;DHT22;27616;51.420;6.788;2024-03-29T10:13:23;11.50;99.90
41928;DHT22;27616;51.420;6.788;2024-03-29T10:15:56;11.50;99.90
41928;DHT22;27616;51.420;6.788;2024-03-29T10:18:28;11.50;99.90
41928;DHT22;27616;51.420;6.788;2024-03-29T10:21:06;11.50;99.90
41928;DHT22;27616;51.420;6.788;2024-03-29T10:23:33;11.70;99.90
41928;DHT22;27616;51.420;6.788;2024-03-29T10:26:04;11.70;99.90
41928;DHT22;27616;51.420;6.788;2024-03-29T10:28:34;11.70;99.90
41928;DHT22;27616;51.420;6.788;2024-03-29T10:31:04;11.70;99.90
41928;DHT22;27616;51.420;6.788;2024-03-29T10:33:33;11.60;99.90
41928;DHT22;27616;51.420;6.788;2024-03-29T10:36:00;11.70;99.90
41928;DHT22;27616;51.420;6.788;2024-03-29T10:38:26;11.70;99.90
41928;DHT22;27616;51.420;6.788;2024-03-29T10:40:53;11.70;99.90
41928;DHT22;27616;51.420;6.788;2024-03-29T10:43:19;11.70;99.90
41928;DHT22;27616;51.420;6.788;2024-03-29T10:45:47;11.70;99.90
41928;DHT22;27616;51.420;6.788;2024-03-29T10:48:15;11.80;99.90
41928;DHT22;27616;51.420;6.788;2024-03-29T10:50:41;11.80;99.90
41928;DHT22;27616;51.420;6.788;2024-03-29T10:53:09;11.80;99.90
41928;DHT22;27616;51.420;6.788;2024-03-29T10:55:36;12.00;99.90
41928;DHT22;27616;51.420;6.788;2024-03-29T10:58:03;12.40;99.90
41928;DHT22;27616;51.420;6.788;2024-03-29T11:00:32;12.70;99.90
41928;DHT22;27616;51.420;6.788;2024-03-29T11:03:37;13.10;99.90
41928;DHT22;27616;51.420;6.788;2024-03-29T11:06:02;13.40;99.90
41928;DHT22;27616;51.420;6.788;2024-03-29T11:08:34;14.10;99.90
41928;DHT22;27616;51.420;6.788;2024-03-29T11:11:05;14.90;99.90
41928;DHT22;27616;51.420;6.788;2024-03-29T11:13:53;16.00;99.90
41928;DHT22;27616;51.420;6.788;2024-03-29T11:16:19;16.80;99.90
41928;DHT22;27616;51.420;6.788;2024-03-29T11:18:46;17.20;99.90
41928;DHT22;27616;51.420;6.788;2024-03-29T11:21:16;17.20;99.90
41928;DHT22;27616;51.420;6.788;2024-03-29T11:23:53;17.30;99.90
41928;DHT22;27616;51.420;6.788;2024-03-29T11:26:19;17.10;99.90
41928;DHT22;27616;51.420;6.788;2024-03-29T11:28:49;16.50;99.90
41928;DHT22;27616;51.420;6.788;2024-03-29T11:31:15;16.10;99.90
41928;DHT22;27616;51.420;6.788;2024-03-29T11:36:10;15.30;99.90
41928;DHT22;27616;51.420;6.788;2024-03-29T11:38:36;15.10;99.90
41928;DHT22;27616;51.420;6.788;2024-03-29T11:41:06;15.00;99.90
41928;DHT22;27616;51.420;6.788;2024-03-29T11:43:35;14.70;99.90
41928;DHT22;27616;51.420;6.788;2024-03-29T11:46:05;14.60;99.90
41928;DHT22;27616;51.420;6.788;2024-03-29T11:48:30;14.60;99.90
41928;DHT22;27616;51.420;6.788;2024-03-29T11:51:00;14.40;99.90
41928;DHT22;27616;51.420;6.788;2024-03-29T11:53:26;14.30;99.90
41928;DHT22;27616;51.420;6.788;2024-03-29T11:56:00;14.30;99.90
41928;DHT22;27616;51.420;6.788;2024-03-29T11:58:29;14.30;99.90
41928;DHT22;27616;51.420;6.788;2024-03-29T12:00:57;14.30;99.90
41928;DHT22;27616;51.420;6.788;2024-03-29T12:03:27;14.40;99.90
41928;DHT22;27616;51.420;6.788;2024-03-29T12:05:54;14.40;99.90
41928;DHT22;27616;51.420;6.788;2024-03-29T12:08:25;14.40;99.90
41928;DHT22;27616;51.420;6.788;2024-03-29T12:10:52;14.50;99.90
41928;DHT22;27616;51.420;6.788;2024-03-29T12:13:17;14.60;99.90
41928;DHT22;27616;51.420;6.788;2024-03-29T12:15:43;14.70;99.90
41928;DHT22;27616;51.420;6.788;2024-03-29T12:18:09;14.60;99.90
41928;DHT22;27616;51.420;6.788;2024-03-29T12:20:37;14.70;99.90
41928;DHT22;27616;51.420;6.788;2024-03-29T12:23:05;14.70;99.90
41928;DHT22;27616;51.420;6.788;2024-03-29T12:25:33;14.80;99.90
41928;DHT22;27616;51.420;6.788;2024-03-29T12:27:59;14.80;99.90
41928;DHT22;27616;51.420;6.788;2024-03-29T12:30:26;15.00;99.90
41928;DHT22;27616;51.420;6.788;2024-03-29T12:33:09;15.00;99.90
41928;DHT22;27616;51.420;6.788;2024-03-29T12:35:36;15.00;99.90
41928;DHT22;27616;51.420;6.788;2024-03-29T12:38:03;15.10;99.90
41928;DHT22;27616;51.420;6.788;2024-03-29T12:40:30;15.20;99.90
41928;DHT22;27616;51.420;6.788;2024-03-29T12:42:58;15.30;99.90
41928;DHT22;27616;51.420;6.788;2024-03-29T12:45:24;15.50;99.90
41928;DHT22;27616;51.420;6.788;2024-03-29T12:47:51;15.70;99.90
41928;DHT22;27616;51.420;6.788;2024-03-29T12:50:25;15.80;99.90
41928;DHT22;27616;51.420;6.788;2024-03-29T12:52:57;15.90;99.90
41928;DHT22;27616;51.420;6.788;2024-03-29T12:55:24;15.80;99.90
41928;DHT22;27616;51.420;6.788;2024-03-29T12:57:50;16.00;99.90
41928;DHT22;27616;51.420;6.788;2024-03-29T13:00:22;16.20;99.90
41928;DHT22;27616;51.420;6.788;2024-03-29T13:02:48;16.60;99.90
41928;DHT22;27616;51.420;6.788;2024-03-29T13:05:14;16.90;99.90
41928;DHT22;27616;51.420;6.788;2024-03-29T13:07:40;17.30;99.90
41928;DHT22;27616;51.420;6.788;2024-03-29T13:10:06;17.20;99.90
41928;DHT22;27616;51.420;6.788;2024-03-29T13:12:39;17.20;99.90
41928;DHT22;27616;51.420;6.788;2024-03-29T13:15:18;17.20;99.90
41928;DHT22;27616;51.420;6.788;2024-03-29T13:17:46;17.20;99.90
41928;DHT22;27616;51.420;6.788;2024-03-29T13:20:12;17.30;99.90
41928;DHT22;27616;51.420;6.788;2024-03-29T13:22:38;17.60;99.90
41928;DHT22;27616;51.420;6.788;2024-03-29T13:25:04;17.80;99.90
41928;DHT22;27616;51.420;6.788;2024-03-29T13:27:32;17.70;99.80
41928;DHT22;27616;51.420;6.788;2024-03-29T13:29:58;18.00;99.90
41928;DHT22;27616;51.420;6.788;2024-03-29T13:32:24;18.30;99.80
41928;DHT22;27616;51.420;6.788;2024-03-29T13:34:49;18.40;99.30
41928;DHT22;27616;51.420;6.788;2024-03-29T13:37:16;18.40;99.90
41928;DHT22;27616;51.420;6.788;2024-03-29T13:39:41;18.40;99.00
41928;DHT22;27616;51.420;6.788;2024-03-29T13:42:07;18.00;99.20
41928;DHT22;27616;51.420;6.788;2024-03-29T13:44:32;17.70;99.60
41928;DHT22;27616;51.420;6.788;2024-03-29T13:46:59;17.40;99.40
41928;DHT22;27616;51.420;6.788;2024-03-29T13:49:29;17.30;99.90
41928;DHT22;27616;51.420;6.788;2024-03-29T13:51:56;17.00;99.90
41928;DHT22;27616;51.420;6.788;2024-03-29T13:54:22;16.90;99.90
41928;DHT22;27616;51.420;6.788;2024-03-29T13:56:49;16.90;99.90
41928;DHT22;27616;51.420;6.788;2024-03-29T13:59:14;16.70;99.90
41928;DHT22;27616;51.420;6.788;2024-03-29T14:01:40;16.60;99.90
41928;DHT22;27616;51.420;6.788;2024-03-29T14:04:06;16.70;99.90
41928;DHT22;27616;51.420;6.788;2024-03-29T14:06:32;16.70;99.90
41928;DHT22;27616;51.420;6.788;2024-03-29T14:08:58;16.80;99.90
41928;DHT22;27616;51.420;6.788;2024-03-29T14:11:23;16.80;99.90
41928;DHT22;27616;51.420;6.788;2024-03-29T14:13:49;16.90;99.90
41928;DHT22;27616;51.420;6.788;2024-03-29T14:16:21;16.90;99.90
41928;DHT22;27616;51.420;6.788;2024-03-29T14:18:47;17.00;99.90
41928;DHT22;27616;51.420;6.788;2024-03-29T14:21:13;17.10;99.40
41928;DHT22;27616;51.420;6.788;2024-03-29T14:23:38;17.10;99.90
41928;DHT22;27616;51.420;6.788;2024-03-29T14:26:04;17.10;99.60
41928;DHT22;27616;51.420;6.788;2024-03-29T14:28:29;17.10;99.90
41928;DHT22;27616;51.420;6.788;2024-03-29T14:30:55;17.20;99.90
41928;DHT22;27616;51.420;6.788;2024-03-29T14:33:20;17.30;99.90
41928;DHT22;27616;51.420;6.788;2024-03-29T14:35:46;17.30;99.60
41928;DHT22;27616;51.420;6.788;2024-03-29T14:38:13;17.30;99.10
41928;DHT22;27616;51.420;6.788;2024-03-29T14:40:39;17.20;99.70
41928;DHT22;27616;51.420;6.788;2024-03-29T14:43:05;17.20;99.40
41928;DHT22;27616;51.420;6.788;2024-03-29T14:45:30;17.10;99.90
41928;DHT22;27616;51.420;6.788;2024-03-29T14:47:56;17.10;99.00
41928;DHT22;27616;51.420;6.788;2024-03-29T14:50:22;17.10;98.70
41928;DHT22;27616;51.420;6.788;2024-03-29T14:52:47;17.10;98.90
41928;DHT22;27616;51.420;6.788;2024-03-29T14:55:13;17.00;98.80
41928;DHT22;27616;51.420;6.788;2024-03-29T14:57:39;17.00;98.90
41928;DHT22;27616;51.420;6.788;2024-03-29T15:00:06;16.90;99.00
41928;DHT22;27616;51.420;6.788;2024-03-29T15:02:32;17.00;99.00
41928;DHT22;27616;51.420;6.788;2024-03-29T15:04:58;16.90;98.90
41928;DHT22;27616;51.420;6.788;2024-03-29T15:07:24;16.90;98.50
41928;DHT22;27616;51.420;6.788;2024-03-29T15:09:50;16.90;98.60
41928;DHT22;27616;51.420;6.788;2024-03-29T15:12:17;16.80;99.10
41928;DHT22;27616;51.420;6.788;2024-03-29T15:14:43;16.80;98.70
41928;DHT22;27616;51.420;6.788;2024-03-29T15:17:09;16.70;98.70
41928;DHT22;27616;51.420;6.788;2024-03-29T15:19:35;16.70;98.80
41928;DHT22;27616;51.420;6.788;2024-03-29T15:22:00;16.60;99.20
41928;DHT22;27616;51.420;6.788;2024-03-29T15:24:26;16.60;99.20
41928;DHT22;27616;51.420;6.788;2024-03-29T15:26:52;16.60;99.60
41928;DHT22;27616;51.420;6.788;2024-03-29T15:29:24;16.60;99.80
41928;DHT22;27616;51.420;6.788;2024-03-29T15:31:50;16.70;99.90
41928;DHT22;27616;51.420;6.788;2024-03-29T15:34:16;16.70;99.90
41928;DHT22;27616;51.420;6.788;2024-03-29T15:36:41;16.90;99.90
41928;DHT22;27616;51.420;6.788;2024-03-29T15:39:07;17.00;98.70